sensor_id;sensor_type;location;lat;lon;timestamp;P1;durP1;ratioP1;P2;durP2;ratioP2
65459;SDS011;52058;49.822;6.754;2023-04-25T00:00:49;15.70;;;9.20;;
65459;SDS011;52058;49.822;6.754;2023-04-25T00:03:17;14.38;;;9.05;;
65459;SDS011;52058;49.822;6.754;2023-04-25T00:05:44;14.00;;;8.98;;
65459;SDS011;52058;49.822;6.754;2023-04-25T00:08:11;14.48;;;9.50;;
65459;SDS011;52058;49.822;6.754;2023-04-25T00:10:39;15.65;;;9.20;;
65459;SDS011;52058;49.822;6.754;2023-04-25T00:13:05;14.95;;;8.77;;
65459;SDS011;52058;49.822;6.754;2023-04-25T00:15:33;15.18;;;8.82;;
65459;SDS011;52058;49.822;6.754;2023-04-25T00:18:01;16.40;;;9.20;;
65459;SDS011;52058;49.822;6.754;2023-04-25T00:20:27;14.82;;;8.50;;
65459;SDS011;52058;49.822;6.754;2023-04-25T00:22:55;14.90;;;8.77;;
65459;SDS011;52058;49.822;6.754;2023-04-25T00:25:21;14.95;;;8.93;;
65459;SDS011;52058;49.822;6.754;2023-04-25T00:27:49;13.60;;;8.35;;
65459;SDS011;52058;49.822;6.754;2023-04-25T00:30:16;13.18;;;8.35;;
65459;SDS011;52058;49.822;6.754;2023-04-25T00:32:42;15.57;;;8.50;;
65459;SDS011;52058;49.822;6.754;2023-04-25T00:35:09;13.65;;;8.60;;
65459;SDS011;52058;49.822;6.754;2023-04-25T00:37:36;14.15;;;8.73;;
65459;SDS011;52058;49.822;6.754;2023-04-25T00:40:03;12.93;;;7.90;;
65459;SDS011;52058;49.822;6.754;2023-04-25T00:42:32;15.55;;;9.07;;
65459;SDS011;52058;49.822;6.754;2023-04-25T00:45:02;12.98;;;8.30;;
65459;SDS011;52058;49.822;6.754;2023-04-25T00:47:32;13.38;;;8.13;;
65459;SDS011;52058;49.822;6.754;2023-04-25T00:49:59;13.48;;;8.52;;
65459;SDS011;52058;49.822;6.754;2023-04-25T00:52:27;14.27;;;8.45;;
65459;SDS011;52058;49.822;6.754;2023-04-25T00:54:53;13.60;;;8.10;;
65459;SDS011;52058;49.822;6.754;2023-04-25T00:57:20;13.27;;;8.15;;
65459;SDS011;52058;49.822;6.754;2023-04-25T00:59:47;15.43;;;9.15;;
65459;SDS011;52058;49.822;6.754;2023-04-25T01:02:17;13.30;;;8.85;;
65459;SDS011;52058;49.822;6.754;2023-04-25T01:04:45;13.65;;;8.85;;
65459;SDS011;52058;49.822;6.754;2023-04-25T01:07:13;15.23;;;8.82;;
65459;SDS011;52058;49.822;6.754;2023-04-25T01:09:41;14.15;;;8.90;;
65459;SDS011;52058;49.822;6.754;2023-04-25T01:12:07;16.70;;;9.52;;
65459;SDS011;52058;49.822;6.754;2023-04-25T01:14:34;14.55;;;9.27;;
65459;SDS011;52058;49.822;6.754;2023-04-25T01:17:01;15.85;;;9.15;;
65459;SDS011;52058;49.822;6.754;2023-04-25T01:19:29;17.13;;;9.20;;
65459;SDS011;52058;49.822;6.754;2023-04-25T01:21:57;17.40;;;10.10;;
65459;SDS011;52058;49.822;6.754;2023-04-25T01:24:24;14.30;;;8.52;;
65459;SDS011;52058;49.822;6.754;2023-04-25T01:26:51;15.48;;;8.88;;
65459;SDS011;52058;49.822;6.754;2023-04-25T01:29:21;17.00;;;10.00;;
65459;SDS011;52058;49.822;6.754;2023-04-25T01:31:49;15.93;;;9.93;;
65459;SDS011;52058;49.822;6.754;2023-04-25T01:34:19;16.38;;;10.00;;
65459;SDS011;52058;49.822;6.754;2023-04-25T01:36:47;18.80;;;10.45;;
65459;SDS011;52058;49.822;6.754;2023-04-25T01:39:17;14.80;;;9.27;;
65459;SDS011;52058;49.822;6.754;2023-04-25T01:41:44;15.40;;;9.90;;
65459;SDS011;52058;49.822;6.754;2023-04-25T01:44:11;17.13;;;9.98;;
65459;SDS011;52058;49.822;6.754;2023-04-25T01:46:38;16.08;;;9.10;;
65459;SDS011;52058;49.822;6.754;2023-04-25T01:49:04;15.73;;;9.43;;
65459;SDS011;52058;49.822;6.754;2023-04-25T01:51:31;17.02;;;9.95;;
65459;SDS011;52058;49.822;6.754;2023-04-25T01:53:58;16.45;;;9.50;;
65459;SDS011;52058;49.822;6.754;2023-04-25T01:56:27;17.45;;;9.80;;
65459;SDS011;52058;49.822;6.754;2023-04-25T01:58:56;17.63;;;9.85;;
65459;SDS011;52058;49.822;6.754;2023-04-25T02:01:23;17.50;;;10.00;;
65459;SDS011;52058;49.822;6.754;2023-04-25T02:03:50;16.73;;;9.13;;
65459;SDS011;52058;49.822;6.754;2023-04-25T02:06:16;18.60;;;10.25;;
65459;SDS011;52058;49.822;6.754;2023-04-25T02:08:43;17.35;;;9.20;;
65459;SDS011;52058;49.822;6.754;2023-04-25T02:11:10;21.00;;;10.88;;
65459;SDS011;52058;49.822;6.754;2023-04-25T02:13:37;20.60;;;10.70;;
65459;SDS011;52058;49.822;6.754;2023-04-25T02:16:04;18.80;;;11.10;;
65459;SDS011;52058;49.822;6.754;2023-04-25T02:18:34;18.88;;;11.05;;
65459;SDS011;52058;49.822;6.754;2023-04-25T02:21:02;20.05;;;9.98;;
65459;SDS011;52058;49.822;6.754;2023-04-25T02:23:29;21.13;;;11.63;;
65459;SDS011;52058;49.822;6.754;2023-04-25T02:25:56;20.48;;;10.60;;
65459;SDS011;52058;49.822;6.754;2023-04-25T02:28:23;19.45;;;10.35;;
65459;SDS011;52058;49.822;6.754;2023-04-25T02:30:51;22.38;;;11.43;;
65459;SDS011;52058;49.822;6.754;2023-04-25T02:33:18;21.75;;;11.30;;
65459;SDS011;52058;49.822;6.754;2023-04-25T02:35:46;20.98;;;10.52;;
65459;SDS011;52058;49.822;6.754;2023-04-25T02:38:12;17.70;;;10.10;;
65459;SDS011;52058;49.822;6.754;2023-04-25T02:40:39;16.85;;;9.35;;
65459;SDS011;52058;49.822;6.754;2023-04-25T02:43:06;15.25;;;9.60;;
65459;SDS011;52058;49.822;6.754;2023-04-25T02:45:33;16.77;;;9.32;;
65459;SDS011;52058;49.822;6.754;2023-04-25T02:48:01;21.40;;;10.07;;
65459;SDS011;52058;49.822;6.754;2023-04-25T02:50:28;17.40;;;9.45;;
65459;SDS011;52058;49.822;6.754;2023-04-25T02:52:55;17.98;;;10.85;;
65459;SDS011;52058;49.822;6.754;2023-04-25T02:55:22;17.23;;;9.85;;
65459;SDS011;52058;49.822;6.754;2023-04-25T02:57:49;17.17;;;10.43;;
65459;SDS011;52058;49.822;6.754;2023-04-25T03:00:16;18.85;;;10.40;;
65459;SDS011;52058;49.822;6.754;2023-04-25T03:02:43;18.70;;;10.43;;
65459;SDS011;52058;49.822;6.754;2023-04-25T03:05:11;18.23;;;10.10;;
65459;SDS011;52058;49.822;6.754;2023-04-25T03:07:38;18.23;;;9.82;;
65459;SDS011;52058;49.822;6.754;2023-04-25T03:10:05;19.05;;;10.68;;
65459;SDS011;52058;49.822;6.754;2023-04-25T03:12:33;17.63;;;10.25;;
65459;SDS011;52058;49.822;6.754;2023-04-25T03:14:59;19.13;;;10.05;;
65459;SDS011;52058;49.822;6.754;2023-04-25T03:17:26;19.10;;;10.65;;
65459;SDS011;52058;49.822;6.754;2023-04-25T03:19:53;20.38;;;11.05;;
65459;SDS011;52058;49.822;6.754;2023-04-25T03:22:21;19.73;;;10.90;;
65459;SDS011;52058;49.822;6.754;2023-04-25T03:24:47;18.30;;;10.25;;
65459;SDS011;52058;49.822;6.754;2023-04-25T03:27:14;19.20;;;11.40;;
65459;SDS011;52058;49.822;6.754;2023-04-25T03:29:41;19.33;;;11.35;;
65459;SDS011;52058;49.822;6.754;2023-04-25T03:32:08;17.52;;;10.23;;
65459;SDS011;52058;49.822;6.754;2023-04-25T03:34:34;18.00;;;10.43;;
65459;SDS011;52058;49.822;6.754;2023-04-25T03:37:01;16.42;;;10.30;;
65459;SDS011;52058;49.822;6.754;2023-04-25T03:39:29;19.27;;;10.88;;
65459;SDS011;52058;49.822;6.754;2023-04-25T03:41:56;17.83;;;10.10;;
65459;SDS011;52058;49.822;6.754;2023-04-25T03:44:22;19.50;;;10.07;;
65459;SDS011;52058;49.822;6.754;2023-04-25T03:46:50;19.27;;;11.02;;
65459;SDS011;52058;49.822;6.754;2023-04-25T03:49:17;16.80;;;9.65;;
65459;SDS011;52058;49.822;6.754;2023-04-25T03:51:43;16.73;;;10.07;;
65459;SDS011;52058;49.822;6.754;2023-04-25T03:54:10;15.25;;;9.70;;
65459;SDS011;52058;49.822;6.754;2023-04-25T03:56:38;14.55;;;9.35;;
65459;SDS011;52058;49.822;6.754;2023-04-25T03:59:05;15.57;;;9.88;;
65459;SDS011;52058;49.822;6.754;2023-04-25T04:01:31;17.88;;;9.65;;
65459;SDS011;52058;49.822;6.754;2023-04-25T04:03:58;16.42;;;8.77;;
65459;SDS011;52058;49.822;6.754;2023-04-25T04:06:25;16.30;;;8.98;;
65459;SDS011;52058;49.822;6.754;2023-04-25T04:08:51;14.75;;;9.60;;
65459;SDS011;52058;49.822;6.754;2023-04-25T04:11:18;15.82;;;9.60;;
65459;SDS011;52058;49.822;6.754;2023-04-25T04:13:47;16.35;;;9.88;;
65459;SDS011;52058;49.822;6.754;2023-04-25T04:16:13;15.93;;;10.48;;
65459;SDS011;52058;49.822;6.754;2023-04-25T04:18:40;16.45;;;9.77;;
65459;SDS011;52058;49.822;6.754;2023-04-25T04:21:07;15.77;;;9.70;;
65459;SDS011;52058;49.822;6.754;2023-04-25T04:23:33;17.35;;;11.00;;
65459;SDS011;52058;49.822;6.754;2023-04-25T04:26:00;17.30;;;10.20;;
65459;SDS011;52058;49.822;6.754;2023-04-25T04:28:26;16.65;;;10.50;;
65459;SDS011;52058;49.822;6.754;2023-04-25T04:30:58;16.92;;;10.20;;
65459;SDS011;52058;49.822;6.754;2023-04-25T04:33:25;17.00;;;10.27;;
65459;SDS011;52058;49.822;6.754;2023-04-25T04:35:53;16.17;;;9.30;;
65459;SDS011;52058;49.822;6.754;2023-04-25T04:38:20;16.08;;;10.50;;
65459;SDS011;52058;49.822;6.754;2023-04-25T04:40:47;18.63;;;10.45;;
65459;SDS011;52058;49.822;6.754;2023-04-25T04:43:14;16.92;;;10.25;;
65459;SDS011;52058;49.822;6.754;2023-04-25T04:45:48;17.10;;;10.10;;
65459;SDS011;52058;49.822;6.754;2023-04-25T04:48:16;16.45;;;9.60;;
65459;SDS011;52058;49.822;6.754;2023-04-25T04:50:44;17.98;;;9.75;;
65459;SDS011;52058;49.822;6.754;2023-04-25T04:53:11;14.13;;;8.30;;
65459;SDS011;52058;49.822;6.754;2023-04-25T04:55:37;14.85;;;8.82;;
65459;SDS011;52058;49.822;6.754;2023-04-25T04:58:06;13.02;;;8.65;;
65459;SDS011;52058;49.822;6.754;2023-04-25T05:00:32;14.95;;;8.75;;
65459;SDS011;52058;49.822;6.754;2023-04-25T05:02:59;13.75;;;8.65;;
65459;SDS011;52058;49.822;6.754;2023-04-25T05:05:27;13.63;;;8.80;;
65459;SDS011;52058;49.822;6.754;2023-04-25T05:07:53;13.52;;;8.70;;
65459;SDS011;52058;49.822;6.754;2023-04-25T05:10:20;13.90;;;8.32;;
65459;SDS011;52058;49.822;6.754;2023-04-25T05:12:47;14.25;;;8.82;;
65459;SDS011;52058;49.822;6.754;2023-04-25T05:15:13;13.75;;;8.48;;
65459;SDS011;52058;49.822;6.754;2023-04-25T05:17:40;14.25;;;8.80;;
65459;SDS011;52058;49.822;6.754;2023-04-25T05:20:07;15.43;;;8.77;;
65459;SDS011;52058;49.822;6.754;2023-04-25T05:22:36;13.43;;;8.95;;
65459;SDS011;52058;49.822;6.754;2023-04-25T05:25:02;12.68;;;8.27;;
65459;SDS011;52058;49.822;6.754;2023-04-25T05:27:29;13.15;;;8.80;;
65459;SDS011;52058;49.822;6.754;2023-04-25T05:29:56;13.80;;;8.57;;
65459;SDS011;52058;49.822;6.754;2023-04-25T05:32:22;13.65;;;8.88;;
65459;SDS011;52058;49.822;6.754;2023-04-25T05:34:50;14.20;;;8.05;;
65459;SDS011;52058;49.822;6.754;2023-04-25T05:37:16;13.75;;;8.85;;
65459;SDS011;52058;49.822;6.754;2023-04-25T05:39:44;12.35;;;8.20;;
65459;SDS011;52058;49.822;6.754;2023-04-25T05:42:11;14.25;;;9.77;;
65459;SDS011;52058;49.822;6.754;2023-04-25T05:44:39;14.02;;;9.10;;
65459;SDS011;52058;49.822;6.754;2023-04-25T05:47:05;15.38;;;8.45;;
65459;SDS011;52058;49.822;6.754;2023-04-25T05:49:32;15.98;;;8.45;;
65459;SDS011;52058;49.822;6.754;2023-04-25T05:51:58;16.45;;;8.40;;
65459;SDS011;52058;49.822;6.754;2023-04-25T05:54:25;12.85;;;7.75;;
65459;SDS011;52058;49.822;6.754;2023-04-25T05:56:53;12.90;;;8.52;;
65459;SDS011;52058;49.822;6.754;2023-04-25T05:59:19;13.35;;;8.55;;
65459;SDS011;52058;49.822;6.754;2023-04-25T06:01:46;18.73;;;9.60;;
65459;SDS011;52058;49.822;6.754;2023-04-25T06:04:12;13.32;;;8.00;;
65459;SDS011;52058;49.822;6.754;2023-04-25T06:06:39;16.42;;;8.50;;
65459;SDS011;52058;49.822;6.754;2023-04-25T06:09:06;23.58;;;10.07;;
65459;SDS011;52058;49.822;6.754;2023-04-25T06:11:32;21.05;;;9.27;;
65459;SDS011;52058;49.822;6.754;2023-04-25T06:14:00;16.17;;;7.68;;
65459;SDS011;52058;49.822;6.754;2023-04-25T06:16:27;13.73;;;8.57;;
65459;SDS011;52058;49.822;6.754;2023-04-25T06:18:53;13.45;;;7.15;;
65459;SDS011;52058;49.822;6.754;2023-04-25T06:21:20;10.18;;;7.20;;
65459;SDS011;52058;49.822;6.754;2023-04-25T06:23:46;12.45;;;6.80;;
65459;SDS011;52058;49.822;6.754;2023-04-25T06:26:13;17.33;;;8.93;;
65459;SDS011;52058;49.822;6.754;2023-04-25T06:28:39;10.40;;;5.60;;
65459;SDS011;52058;49.822;6.754;2023-04-25T06:31:07;12.38;;;6.63;;
65459;SDS011;52058;49.822;6.754;2023-04-25T06:33:34;11.30;;;6.85;;
65459;SDS011;52058;49.822;6.754;2023-04-25T06:36:00;14.68;;;8.50;;
65459;SDS011;52058;49.822;6.754;2023-04-25T06:38:27;12.15;;;6.28;;
65459;SDS011;52058;49.822;6.754;2023-04-25T06:40:54;8.65;;;5.40;;
65459;SDS011;52058;49.822;6.754;2023-04-25T06:43:20;9.05;;;5.97;;
65459;SDS011;52058;49.822;6.754;2023-04-25T06:45:47;9.27;;;5.80;;
65459;SDS011;52058;49.822;6.754;2023-04-25T06:48:15;9.60;;;5.90;;
65459;SDS011;52058;49.822;6.754;2023-04-25T06:50:41;9.55;;;5.38;;
65459;SDS011;52058;49.822;6.754;2023-04-25T06:53:08;12.02;;;5.80;;
65459;SDS011;52058;49.822;6.754;2023-04-25T06:55:36;10.48;;;6.07;;
65459;SDS011;52058;49.822;6.754;2023-04-25T06:58:03;8.80;;;6.00;;
65459;SDS011;52058;49.822;6.754;2023-04-25T07:00:29;8.98;;;6.22;;
65459;SDS011;52058;49.822;6.754;2023-04-25T07:02:57;9.77;;;6.55;;
65459;SDS011;52058;49.822;6.754;2023-04-25T07:05:25;12.60;;;5.95;;
65459;SDS011;52058;49.822;6.754;2023-04-25T07:07:51;11.98;;;5.82;;
65459;SDS011;52058;49.822;6.754;2023-04-25T07:10:18;10.18;;;5.57;;
65459;SDS011;52058;49.822;6.754;2023-04-25T07:12:46;10.88;;;5.72;;
65459;SDS011;52058;49.822;6.754;2023-04-25T07:15:12;9.25;;;5.68;;
65459;SDS011;52058;49.822;6.754;2023-04-25T07:17:39;9.52;;;5.57;;
65459;SDS011;52058;49.822;6.754;2023-04-25T07:20:06;11.05;;;5.50;;
65459;SDS011;52058;49.822;6.754;2023-04-25T07:22:35;11.57;;;5.93;;
65459;SDS011;52058;49.822;6.754;2023-04-25T07:25:03;11.90;;;5.43;;
65459;SDS011;52058;49.822;6.754;2023-04-25T07:27:30;9.50;;;5.50;;
65459;SDS011;52058;49.822;6.754;2023-04-25T07:29:57;10.57;;;5.80;;
65459;SDS011;52058;49.822;6.754;2023-04-25T07:32:27;9.98;;;5.30;;
65459;SDS011;52058;49.822;6.754;2023-04-25T07:34:53;10.68;;;5.28;;
65459;SDS011;52058;49.822;6.754;2023-04-25T07:37:20;7.32;;;4.50;;
65459;SDS011;52058;49.822;6.754;2023-04-25T07:39:48;9.13;;;5.18;;
65459;SDS011;52058;49.822;6.754;2023-04-25T07:42:14;8.45;;;4.60;;
65459;SDS011;52058;49.822;6.754;2023-04-25T07:44:41;8.30;;;5.07;;
65459;SDS011;52058;49.822;6.754;2023-04-25T07:47:08;9.55;;;5.00;;
65459;SDS011;52058;49.822;6.754;2023-04-25T07:49:35;10.05;;;4.57;;
65459;SDS011;52058;49.822;6.754;2023-04-25T07:52:03;10.07;;;5.13;;
65459;SDS011;52058;49.822;6.754;2023-04-25T07:54:31;6.95;;;4.57;;
65459;SDS011;52058;49.822;6.754;2023-04-25T07:56:59;7.32;;;3.25;;
65459;SDS011;52058;49.822;6.754;2023-04-25T07:59:25;6.10;;;3.38;;
65459;SDS011;52058;49.822;6.754;2023-04-25T08:01:52;5.47;;;3.35;;
65459;SDS011;52058;49.822;6.754;2023-04-25T08:04:19;10.05;;;4.15;;
65459;SDS011;52058;49.822;6.754;2023-04-25T08:06:45;6.47;;;3.38;;
65459;SDS011;52058;49.822;6.754;2023-04-25T08:09:12;8.15;;;3.78;;
65459;SDS011;52058;49.822;6.754;2023-04-25T08:11:40;4.93;;;2.83;;
65459;SDS011;52058;49.822;6.754;2023-04-25T08:14:08;5.07;;;3.10;;
65459;SDS011;52058;49.822;6.754;2023-04-25T08:16:35;8.07;;;2.85;;
65459;SDS011;52058;49.822;6.754;2023-04-25T08:19:01;4.65;;;2.83;;
65459;SDS011;52058;49.822;6.754;2023-04-25T08:21:28;6.20;;;2.85;;
65459;SDS011;52058;49.822;6.754;2023-04-25T08:23:55;8.68;;;3.05;;
65459;SDS011;52058;49.822;6.754;2023-04-25T08:26:23;5.70;;;3.08;;
65459;SDS011;52058;49.822;6.754;2023-04-25T08:28:49;4.85;;;2.53;;
65459;SDS011;52058;49.822;6.754;2023-04-25T08:31:18;4.40;;;2.78;;
65459;SDS011;52058;49.822;6.754;2023-04-25T08:33:44;6.18;;;2.65;;
65459;SDS011;52058;49.822;6.754;2023-04-25T08:36:11;3.55;;;2.40;;
65459;SDS011;52058;49.822;6.754;2023-04-25T08:38:38;4.53;;;2.50;;
65459;SDS011;52058;49.822;6.754;2023-04-25T08:41:04;6.20;;;2.40;;
65459;SDS011;52058;49.822;6.754;2023-04-25T08:43:32;5.13;;;2.67;;
65459;SDS011;52058;49.822;6.754;2023-04-25T08:46:00;7.30;;;2.70;;
65459;SDS011;52058;49.822;6.754;2023-04-25T08:48:30;4.60;;;2.72;;
65459;SDS011;52058;49.822;6.754;2023-04-25T08:50:59;4.65;;;2.20;;
65459;SDS011;52058;49.822;6.754;2023-04-25T08:53:28;5.35;;;2.80;;
65459;SDS011;52058;49.822;6.754;2023-04-25T08:55:57;4.20;;;2.33;;
65459;SDS011;52058;49.822;6.754;2023-04-25T08:58:26;5.28;;;2.38;;
65459;SDS011;52058;49.822;6.754;2023-04-25T09:00:53;5.57;;;2.33;;
65459;SDS011;52058;49.822;6.754;2023-04-25T09:03:20;7.00;;;2.75;;
65459;SDS011;52058;49.822;6.754;2023-04-25T09:05:48;2.72;;;1.88;;
65459;SDS011;52058;49.822;6.754;2023-04-25T09:08:15;4.18;;;2.35;;
65459;SDS011;52058;49.822;6.754;2023-04-25T09:10:42;6.03;;;2.10;;
65459;SDS011;52058;49.822;6.754;2023-04-25T09:13:09;6.00;;;2.30;;
65459;SDS011;52058;49.822;6.754;2023-04-25T09:15:47;3.33;;;2.28;;
65459;SDS011;52058;49.822;6.754;2023-04-25T09:18:21;4.10;;;2.50;;
65459;SDS011;52058;49.822;6.754;2023-04-25T09:20:51;5.15;;;2.30;;
65459;SDS011;52058;49.822;6.754;2023-04-25T09:23:19;3.15;;;2.42;;
65459;SDS011;52058;49.822;6.754;2023-04-25T09:25:47;4.85;;;2.42;;
65459;SDS011;52058;49.822;6.754;2023-04-25T09:28:14;3.78;;;2.10;;
65459;SDS011;52058;49.822;6.754;2023-04-25T09:30:41;9.88;;;3.03;;
65459;SDS011;52058;49.822;6.754;2023-04-25T09:33:08;7.05;;;2.75;;
65459;SDS011;52058;49.822;6.754;2023-04-25T09:35:35;5.30;;;2.25;;
65459;SDS011;52058;49.822;6.754;2023-04-25T09:38:08;5.90;;;2.63;;
65459;SDS011;52058;49.822;6.754;2023-04-25T09:40:38;4.72;;;2.30;;
65459;SDS011;52058;49.822;6.754;2023-04-25T09:43:08;3.88;;;2.35;;
65459;SDS011;52058;49.822;6.754;2023-04-25T09:45:40;6.03;;;3.47;;
65459;SDS011;52058;49.822;6.754;2023-04-25T09:48:10;4.30;;;2.63;;
65459;SDS011;52058;49.822;6.754;2023-04-25T09:50:37;5.82;;;2.45;;
65459;SDS011;52058;49.822;6.754;2023-04-25T09:53:04;4.38;;;2.30;;
65459;SDS011;52058;49.822;6.754;2023-04-25T09:55:33;5.93;;;2.45;;
65459;SDS011;52058;49.822;6.754;2023-04-25T09:58:02;4.35;;;2.30;;
65459;SDS011;52058;49.822;6.754;2023-04-25T10:00:31;4.75;;;2.47;;
65459;SDS011;52058;49.822;6.754;2023-04-25T10:02:58;6.20;;;2.50;;
65459;SDS011;52058;49.822;6.754;2023-04-25T10:05:28;5.13;;;2.40;;
65459;SDS011;52058;49.822;6.754;2023-04-25T10:07:58;6.25;;;1.98;;
65459;SDS011;52058;49.822;6.754;2023-04-25T10:10:26;4.60;;;2.45;;
65459;SDS011;52058;49.822;6.754;2023-04-25T10:12:55;2.88;;;2.28;;
65459;SDS011;52058;49.822;6.754;2023-04-25T10:15:22;5.80;;;3.42;;
65459;SDS011;52058;49.822;6.754;2023-04-25T10:17:49;4.80;;;2.38;;
65459;SDS011;52058;49.822;6.754;2023-04-25T10:20:17;5.30;;;2.33;;
65459;SDS011;52058;49.822;6.754;2023-04-25T10:22:44;4.15;;;2.10;;
65459;SDS011;52058;49.822;6.754;2023-04-25T10:25:13;7.28;;;2.38;;
65459;SDS011;52058;49.822;6.754;2023-04-25T10:27:40;5.18;;;2.28;;
65459;SDS011;52058;49.822;6.754;2023-04-25T10:30:09;5.93;;;2.25;;
65459;SDS011;52058;49.822;6.754;2023-04-25T10:32:41;5.97;;;2.63;;
65459;SDS011;52058;49.822;6.754;2023-04-25T10:35:11;4.45;;;2.33;;
65459;SDS011;52058;49.822;6.754;2023-04-25T10:40:25;5.93;;;2.30;;
65459;SDS011;52058;49.822;6.754;2023-04-25T10:42:52;4.00;;;1.92;;
65459;SDS011;52058;49.822;6.754;2023-04-25T10:45:20;6.75;;;2.35;;
65459;SDS011;52058;49.822;6.754;2023-04-25T10:47:47;5.25;;;2.75;;
65459;SDS011;52058;49.822;6.754;2023-04-25T10:50:14;5.60;;;2.15;;
65459;SDS011;52058;49.822;6.754;2023-04-25T10:52:41;5.80;;;2.17;;
65459;SDS011;52058;49.822;6.754;2023-04-25T10:55:09;7.80;;;2.58;;
65459;SDS011;52058;49.822;6.754;2023-04-25T10:57:36;4.65;;;2.10;;
65459;SDS011;52058;49.822;6.754;2023-04-25T11:00:06;4.38;;;2.17;;
65459;SDS011;52058;49.822;6.754;2023-04-25T11:02:43;5.80;;;3.28;;
65459;SDS011;52058;49.822;6.754;2023-04-25T11:05:16;6.95;;;2.78;;
65459;SDS011;52058;49.822;6.754;2023-04-25T11:07:49;7.60;;;2.90;;
65459;SDS011;52058;49.822;6.754;2023-04-25T11:10:16;4.13;;;2.45;;
65459;SDS011;52058;49.822;6.754;2023-04-25T11:12:44;5.88;;;2.72;;
65459;SDS011;52058;49.822;6.754;2023-04-25T11:15:11;6.53;;;2.20;;
65459;SDS011;52058;49.822;6.754;2023-04-25T11:17:38;6.55;;;2.55;;
65459;SDS011;52058;49.822;6.754;2023-04-25T11:20:07;7.53;;;2.35;;
65459;SDS011;52058;49.822;6.754;2023-04-25T11:22:37;4.93;;;2.70;;
65459;SDS011;52058;49.822;6.754;2023-04-25T11:25:04;6.47;;;2.95;;
65459;SDS011;52058;49.822;6.754;2023-04-25T11:27:32;5.45;;;2.28;;
65459;SDS011;52058;49.822;6.754;2023-04-25T11:30:09;6.18;;;2.20;;
65459;SDS011;52058;49.822;6.754;2023-04-25T11:32:36;6.45;;;2.58;;
65459;SDS011;52058;49.822;6.754;2023-04-25T11:35:03;5.13;;;2.80;;
65459;SDS011;52058;49.822;6.754;2023-04-25T11:37:32;6.63;;;2.70;;
65459;SDS011;52058;49.822;6.754;2023-04-25T11:39:59;5.43;;;2.72;;
65459;SDS011;52058;49.822;6.754;2023-04-25T11:42:25;3.75;;;2.60;;
65459;SDS011;52058;49.822;6.754;2023-04-25T11:44:52;5.70;;;2.13;;
65459;SDS011;52058;49.822;6.754;2023-04-25T11:47:19;6.85;;;2.42;;
65459;SDS011;52058;49.822;6.754;2023-04-25T11:49:45;4.00;;;2.13;;
65459;SDS011;52058;49.822;6.754;2023-04-25T11:52:12;6.10;;;2.30;;
65459;SDS011;52058;49.822;6.754;2023-04-25T11:54:40;6.80;;;2.17;;
65459;SDS011;52058;49.822;6.754;2023-04-25T11:57:07;6.85;;;2.50;;
65459;SDS011;52058;49.822;6.754;2023-04-25T11:59:33;5.60;;;2.30;;
65459;SDS011;52058;49.822;6.754;2023-04-25T12:02:00;5.75;;;2.80;;
65459;SDS011;52058;49.822;6.754;2023-04-25T12:04:29;8.55;;;2.58;;
65459;SDS011;52058;49.822;6.754;2023-04-25T12:06:57;5.07;;;1.98;;
65459;SDS011;52058;49.822;6.754;2023-04-25T12:09:27;4.45;;;2.08;;
65459;SDS011;52058;49.822;6.754;2023-04-25T12:11:57;4.45;;;2.15;;
65459;SDS011;52058;49.822;6.754;2023-04-25T12:14:28;5.30;;;2.40;;
65459;SDS011;52058;49.822;6.754;2023-04-25T12:16:57;3.70;;;2.30;;
65459;SDS011;52058;49.822;6.754;2023-04-25T12:19:25;6.57;;;2.78;;
65459;SDS011;52058;49.822;6.754;2023-04-25T12:21:57;3.97;;;2.35;;
65459;SDS011;52058;49.822;6.754;2023-04-25T12:24:24;6.45;;;2.45;;
65459;SDS011;52058;49.822;6.754;2023-04-25T12:26:53;4.05;;;2.00;;
65459;SDS011;52058;49.822;6.754;2023-04-25T12:29:29;6.38;;;2.13;;
65459;SDS011;52058;49.822;6.754;2023-04-25T12:31:57;2.25;;;1.80;;
65459;SDS011;52058;49.822;6.754;2023-04-25T12:34:26;5.75;;;2.00;;
65459;SDS011;52058;49.822;6.754;2023-04-25T12:36:52;5.95;;;2.10;;
65459;SDS011;52058;49.822;6.754;2023-04-25T12:39:23;4.30;;;2.00;;
65459;SDS011;52058;49.822;6.754;2023-04-25T12:41:51;4.65;;;2.20;;
65459;SDS011;52058;49.822;6.754;2023-04-25T12:44:18;4.47;;;1.90;;
65459;SDS011;52058;49.822;6.754;2023-04-25T12:46:47;3.53;;;1.90;;
65459;SDS011;52058;49.822;6.754;2023-04-25T12:49:15;6.90;;;2.55;;
65459;SDS011;52058;49.822;6.754;2023-04-25T12:51:42;7.53;;;2.13;;
65459;SDS011;52058;49.822;6.754;2023-04-25T12:54:08;2.13;;;1.92;;
65459;SDS011;52058;49.822;6.754;2023-04-25T12:56:35;5.80;;;1.83;;
65459;SDS011;52058;49.822;6.754;2023-04-25T12:59:02;5.78;;;3.10;;
65459;SDS011;52058;49.822;6.754;2023-04-25T13:01:29;6.10;;;3.28;;
65459;SDS011;52058;49.822;6.754;2023-04-25T13:03:58;4.10;;;2.20;;
65459;SDS011;52058;49.822;6.754;2023-04-25T13:06:24;5.88;;;2.13;;
65459;SDS011;52058;49.822;6.754;2023-04-25T13:08:51;3.67;;;2.95;;
65459;SDS011;52058;49.822;6.754;2023-04-25T13:11:18;2.90;;;2.33;;
65459;SDS011;52058;49.822;6.754;2023-04-25T13:13:47;4.93;;;2.65;;
65459;SDS011;52058;49.822;6.754;2023-04-25T13:16:14;4.95;;;2.63;;
65459;SDS011;52058;49.822;6.754;2023-04-25T13:18:40;7.13;;;2.63;;
65459;SDS011;52058;49.822;6.754;2023-04-25T13:21:09;4.88;;;2.30;;
65459;SDS011;52058;49.822;6.754;2023-04-25T13:23:36;4.95;;;2.50;;
65459;SDS011;52058;49.822;6.754;2023-04-25T13:26:03;4.25;;;2.30;;
65459;SDS011;52058;49.822;6.754;2023-04-25T13:28:30;4.05;;;2.40;;
65459;SDS011;52058;49.822;6.754;2023-04-25T13:30:57;5.80;;;2.15;;
65459;SDS011;52058;49.822;6.754;2023-04-25T13:33:24;5.00;;;2.05;;
65459;SDS011;52058;49.822;6.754;2023-04-25T13:35:51;6.22;;;2.45;;
65459;SDS011;52058;49.822;6.754;2023-04-25T13:38:22;4.57;;;1.70;;
65459;SDS011;52058;49.822;6.754;2023-04-25T13:40:49;2.83;;;1.50;;
65459;SDS011;52058;49.822;6.754;2023-04-25T13:43:18;3.88;;;2.22;;
65459;SDS011;52058;49.822;6.754;2023-04-25T13:45:46;4.30;;;2.30;;
65459;SDS011;52058;49.822;6.754;2023-04-25T13:48:13;3.67;;;2.25;;
65459;SDS011;52058;49.822;6.754;2023-04-25T13:50:40;3.72;;;1.88;;
65459;SDS011;52058;49.822;6.754;2023-04-25T13:53:07;3.17;;;1.67;;
65459;SDS011;52058;49.822;6.754;2023-04-25T13:55:35;4.60;;;1.80;;
65459;SDS011;52058;49.822;6.754;2023-04-25T13:58:03;3.38;;;1.70;;
65459;SDS011;52058;49.822;6.754;2023-04-25T14:00:33;3.67;;;1.50;;
65459;SDS011;52058;49.822;6.754;2023-04-25T14:03:00;3.00;;;1.40;;
65459;SDS011;52058;49.822;6.754;2023-04-25T14:05:29;4.53;;;1.73;;
65459;SDS011;52058;49.822;6.754;2023-04-25T14:07:56;4.43;;;1.80;;
65459;SDS011;52058;49.822;6.754;2023-04-25T14:10:23;3.95;;;1.48;;
65459;SDS011;52058;49.822;6.754;2023-04-25T14:12:51;2.80;;;1.48;;
65459;SDS011;52058;49.822;6.754;2023-04-25T14:15:18;4.10;;;1.70;;
65459;SDS011;52058;49.822;6.754;2023-04-25T14:17:45;4.43;;;1.60;;
65459;SDS011;52058;49.822;6.754;2023-04-25T14:20:13;3.42;;;1.90;;
65459;SDS011;52058;49.822;6.754;2023-04-25T14:22:39;3.03;;;1.55;;
65459;SDS011;52058;49.822;6.754;2023-04-25T14:25:08;3.20;;;1.55;;
65459;SDS011;52058;49.822;6.754;2023-04-25T14:27:35;5.85;;;1.85;;
65459;SDS011;52058;49.822;6.754;2023-04-25T14:30:03;3.92;;;2.15;;
65459;SDS011;52058;49.822;6.754;2023-04-25T14:32:31;4.63;;;1.88;;
65459;SDS011;52058;49.822;6.754;2023-04-25T14:34:58;5.53;;;1.80;;
65459;SDS011;52058;49.822;6.754;2023-04-25T14:37:24;3.58;;;1.90;;
65459;SDS011;52058;49.822;6.754;2023-04-25T14:39:51;3.83;;;2.00;;
65459;SDS011;52058;49.822;6.754;2023-04-25T14:42:18;6.15;;;1.60;;